Dowa, Malawi
Current Conditions -  °F | °C
As of 6:00 PM on Friday 21 Nov 2014 (Local Time) from FQLC Reporting Station
Scattered Clouds Scattered Clouds  
Wind Chill: 72°   Ceiling: Unl
Heat Index: 72°   Visibility: 6mi
Dew Point: 63°   Wind: 5mph
Humidity: 73%   Direction: 20°NNE
Pressure: 30.12"   Gusts: NA
Location:  13.65°S, 33.93°E
Report Text: FQLC 211600Z 02004KT 9999 SCT017 FEW020CB 22/17 Q1020 RMK CB TO R/S
Loading
Personal Weather Stations






























Interactive Weather Map New forecast layout! Learn more

10-Day Weather Forecast

Advertisements
Track Severe Weather on mobile